Time;durP1;ratioP1;P1;durP2;ratioP2;P2;SDS_P1;SDS_P2;PMS_P1;PMS_P2;Temp;Humidity;BMP_temperature;BMP_pressure;BME280_temperature;BME280_humidity;BME280_pressure;Samples;Min_cycle;Max_cycle;Signal;HPM_P1;HPM_P2
2024/01/21 00:01:13;;;;;;;;;;;17.00;60.70;;;;;;5036881;28;1481;-66
2024/01/21 00:03:38;;;;;;;;;;;16.90;60.60;;;;;;5037442;28;1339;-68
2024/01/21 00:06:05;;;;;;;;;;;17.00;60.70;;;;;;5040183;28;1985;-67
2024/01/21 00:08:31;;;;;;;;;;;16.90;60.60;;;;;;5035872;28;1161;-67
2024/01/21 00:10:56;;;;;;;;;;;16.90;60.60;;;;;;5036400;28;1307;-67
2024/01/21 00:13:22;;;;;;;;;;;16.90;60.60;;;;;;5037360;28;1349;-68
2024/01/21 00:15:47;;;;;;;;;;;17.00;60.70;;;;;;5046122;28;1518;-68
2024/01/21 00:18:13;;;;;;;;;;;16.90;60.60;;;;;;5039823;28;1289;-65
2024/01/21 00:20:41;;;;;;;;;;;16.90;60.60;;;;;;5035755;28;1417;-67
2024/01/21 00:23:07;;;;;;;;;;;16.90;60.60;;;;;;5038934;28;1233;-67
2024/01/21 00:25:33;;;;;;;;;;;16.90;60.60;;;;;;5042143;28;1963;-65
2024/01/21 00:27:58;;;;;;;;;;;16.90;60.70;;;;;;5040108;28;1345;-65
2024/01/21 00:30:23;;;;;;;;;;;16.90;60.70;;;;;;5061514;28;1446;-67
2024/01/21 00:32:49;;;;;;;;;;;16.90;60.70;;;;;;5039501;28;1344;-65
2024/01/21 00:35:14;;;;;;;;;;;16.90;60.70;;;;;;5035249;28;1562;-73
2024/01/21 00:37:43;;;;;;;;;;;16.90;60.70;;;;;;5043280;28;978;-65
2024/01/21 00:40:08;;;;;;;;;;;16.90;60.70;;;;;;5039772;28;1169;-65
2024/01/21 00:42:34;;;;;;;;;;;16.90;60.70;;;;;;5040930;28;1212;-65
2024/01/21 00:45:00;;;;;;;;;;;16.90;60.70;;;;;;5041362;28;1977;-65
2024/01/21 00:47:25;;;;;;;;;;;16.90;60.70;;;;;;5051020;28;1174;-67
2024/01/21 00:49:50;;;;;;;;;;;16.90;60.70;;;;;;5040950;28;1061;-65
2024/01/21 00:52:16;;;;;;;;;;;16.90;60.70;;;;;;5051530;28;927;-67
2024/01/21 00:54:41;;;;;;;;;;;16.90;60.70;;;;;;5041080;28;1253;-67
2024/01/21 00:57:07;;;;;;;;;;;16.90;60.70;;;;;;5044050;28;1520;-66
2024/01/21 00:59:32;;;;;;;;;;;16.90;60.70;;;;;;5042569;28;1665;-67
2024/01/21 01:01:58;;;;;;;;;;;16.90;60.70;;;;;;5039845;28;1519;-66
2024/01/21 01:04:23;;;;;;;;;;;16.90;60.70;;;;;;5041890;28;1901;-66
2024/01/21 01:06:49;;;;;;;;;;;16.90;60.70;;;;;;5075016;28;1314;-66
2024/01/21 01:09:15;;;;;;;;;;;16.90;60.70;;;;;;5041441;28;1423;-66
2024/01/21 01:11:40;;;;;;;;;;;16.90;60.70;;;;;;5038592;28;1267;-66
2024/01/21 01:14:06;;;;;;;;;;;16.90;60.70;;;;;;5040838;28;1494;-66
2024/01/21 01:16:36;;;;;;;;;;;16.90;60.80;;;;;;5040950;28;1604;-67
2024/01/21 01:19:01;;;;;;;;;;;16.90;60.70;;;;;;5074073;28;1295;-66
2024/01/21 01:21:26;;;;;;;;;;;16.90;60.70;;;;;;5038516;28;1355;-66
2024/01/21 01:23:52;;;;;;;;;;;16.90;60.70;;;;;;5040406;28;1367;-66
2024/01/21 01:26:17;;;;;;;;;;;16.90;60.80;;;;;;5037812;28;1906;-66
2024/01/21 01:28:43;;;;;;;;;;;16.90;60.80;;;;;;5039077;28;1155;-66
2024/01/21 01:31:08;;;;;;;;;;;16.90;61.50;;;;;;5039876;28;1191;-66
2024/01/21 01:33:34;;;;;;;;;;;16.90;60.70;;;;;;5040818;28;1726;-66
2024/01/21 01:35:59;;;;;;;;;;;16.90;60.80;;;;;;5040645;28;1508;-66
2024/01/21 01:38:25;;;;;;;;;;;16.90;60.80;;;;;;5038847;28;1258;-65
2024/01/21 01:40:51;;;;;;;;;;;16.90;60.80;;;;;;5040673;28;1288;-66
2024/01/21 01:43:16;;;;;;;;;;;16.90;60.70;;;;;;5049768;28;1385;-66
2024/01/21 01:45:42;;;;;;;;;;;16.90;60.70;;;;;;5042135;28;1890;-66
2024/01/21 01:48:07;;;;;;;;;;;16.90;60.80;;;;;;5043877;28;1467;-65
2024/01/21 01:50:33;;;;;;;;;;;16.90;60.80;;;;;;5043001;28;1304;-66
2024/01/21 01:52:59;;;;;;;;;;;16.80;60.70;;;;;;5072804;28;1480;-65
2024/01/21 01:55:25;;;;;;;;;;;16.90;60.80;;;;;;5038031;28;1472;-65
2024/01/21 01:57:51;;;;;;;;;;;16.90;60.80;;;;;;5043075;28;1361;-65
2024/01/21 02:00:17;;;;;;;;;;;16.90;60.80;;;;;;5046350;28;1398;-65
2024/01/21 02:02:42;;;;;;;;;;;16.80;60.70;;;;;;5043101;28;1322;-65
2024/01/21 02:05:08;;;;;;;;;;;16.80;60.70;;;;;;5047548;28;1969;-65
2024/01/21 02:07:33;;;;;;;;;;;16.80;60.70;;;;;;5042254;28;1608;-64
2024/01/21 02:09:59;;;;;;;;;;;16.80;60.80;;;;;;5071362;28;1441;-65
2024/01/21 02:12:25;;;;;;;;;;;16.80;60.80;;;;;;5047915;28;1482;-65
2024/01/21 02:14:50;;;;;;;;;;;16.80;60.80;;;;;;5038502;28;1363;-66
2024/01/21 02:17:16;;;;;;;;;;;16.80;60.70;;;;;;5040887;28;1429;-66
2024/01/21 02:19:41;;;;;;;;;;;16.80;60.70;;;;;;5039399;28;1519;-64
2024/01/21 02:22:06;;;;;;;;;;;16.80;60.80;;;;;;5041430;28;1716;-65
2024/01/21 02:24:33;;;;;;;;;;;16.80;60.80;;;;;;5043292;28;1955;-63
2024/01/21 02:26:58;;;;;;;;;;;16.80;60.80;;;;;;5042617;28;1416;-65
2024/01/21 02:29:24;;;;;;;;;;;16.80;60.80;;;;;;5043936;28;1496;-65
2024/01/21 02:31:50;;;;;;;;;;;16.80;60.80;;;;;;5040217;28;1379;-66
2024/01/21 02:34:16;;;;;;;;;;;16.80;60.80;;;;;;5038578;28;1334;-65
2024/01/21 02:36:41;;;;;;;;;;;16.80;60.80;;;;;;5040985;28;1298;-64
2024/01/21 02:39:07;;;;;;;;;;;16.80;60.80;;;;;;5041171;28;1725;-65
2024/01/21 02:41:32;;;;;;;;;;;16.80;60.80;;;;;;5047501;28;1920;-66
2024/01/21 02:43:59;;;;;;;;;;;16.80;60.80;;;;;;5041058;28;1902;-65
2024/01/21 02:46:24;;;;;;;;;;;16.80;60.90;;;;;;5039900;28;1471;-67
2024/01/21 02:48:49;;;;;;;;;;;16.80;60.90;;;;;;5036787;28;1609;-66
2024/01/21 02:51:15;;;;;;;;;;;16.80;60.80;;;;;;5039093;28;1497;-66
2024/01/21 02:53:41;;;;;;;;;;;16.80;60.90;;;;;;5039530;28;1283;-66
2024/01/21 02:56:06;;;;;;;;;;;16.80;60.80;;;;;;5041264;28;1512;-66
2024/01/21 02:58:32;;;;;;;;;;;16.80;60.80;;;;;;5040263;28;1568;-65
2024/01/21 03:00:57;;;;;;;;;;;16.80;60.80;;;;;;5037694;28;1635;-65
2024/01/21 03:03:22;;;;;;;;;;;16.80;60.90;;;;;;5039060;28;1624;-66
2024/01/21 03:05:48;;;;;;;;;;;16.80;60.90;;;;;;5072443;28;1973;-65
2024/01/21 03:08:14;;;;;;;;;;;16.80;60.90;;;;;;5039460;28;1850;-65
2024/01/21 03:10:40;;;;;;;;;;;16.80;60.90;;;;;;5041961;28;1738;-65
2024/01/21 03:13:07;;;;;;;;;;;16.80;60.90;;;;;;5039467;28;1225;-65
2024/01/21 03:15:32;;;;;;;;;;;16.80;60.90;;;;;;5041014;28;1256;-66
2024/01/21 03:17:58;;;;;;;;;;;16.80;60.90;;;;;;5070579;28;1223;-65
2024/01/21 03:20:24;;;;;;;;;;;16.80;60.90;;;;;;5070163;28;1568;-66
2024/01/21 03:22:49;;;;;;;;;;;16.80;60.90;;;;;;5071442;28;1634;-65
2024/01/21 03:25:15;;;;;;;;;;;16.80;60.90;;;;;;5041804;28;1902;-65
2024/01/21 03:27:40;;;;;;;;;;;16.80;60.90;;;;;;5039658;28;1443;-65
2024/01/21 03:30:06;;;;;;;;;;;16.80;60.90;;;;;;5040035;28;1322;-65
2024/01/21 03:32:31;;;;;;;;;;;16.80;60.90;;;;;;5040728;28;1353;-65
2024/01/21 03:34:57;;;;;;;;;;;16.80;60.90;;;;;;5040551;28;1455;-65
2024/01/21 03:37:22;;;;;;;;;;;16.80;60.90;;;;;;5040632;28;1547;-66
2024/01/21 03:39:48;;;;;;;;;;;16.80;60.90;;;;;;5040049;28;1538;-65
2024/01/21 03:42:14;;;;;;;;;;;16.80;60.90;;;;;;5036804;28;1145;-65
2024/01/21 03:44:40;;;;;;;;;;;16.80;60.90;;;;;;5038756;28;1902;-65
2024/01/21 03:47:05;;;;;;;;;;;16.80;60.90;;;;;;5039559;28;1245;-65
2024/01/21 03:49:31;;;;;;;;;;;16.80;60.90;;;;;;5038927;28;1486;-65
2024/01/21 03:51:56;;;;;;;;;;;16.80;60.90;;;;;;5040849;28;1531;-65
2024/01/21 03:54:22;;;;;;;;;;;16.80;60.90;;;;;;5040524;28;1768;-64
2024/01/21 03:56:47;;;;;;;;;;;16.80;60.90;;;;;;5037646;28;1429;-65
2024/01/21 03:59:13;;;;;;;;;;;16.80;60.90;;;;;;5040362;28;1275;-65
2024/01/21 04:01:45;;;;;;;;;;;16.80;60.90;;;;;;5070485;28;1584;-65
2024/01/21 04:04:13;;;;;;;;;;;16.80;60.90;;;;;;5035061;28;1954;-64
2024/01/21 04:06:42;;;;;;;;;;;16.80;60.90;;;;;;5036495;28;1347;-65
2024/01/21 04:09:08;;;;;;;;;;;16.80;60.90;;;;;;5038558;28;1562;-65
2024/01/21 04:11:33;;;;;;;;;;;16.80;60.90;;;;;;5067913;28;1413;-66
2024/01/21 04:13:59;;;;;;;;;;;16.70;60.90;;;;;;5035439;28;1556;-65
2024/01/21 04:16:24;;;;;;;;;;;16.80;61.70;;;;;;5041738;28;1828;-67
2024/01/21 04:18:50;;;;;;;;;;;16.70;60.90;;;;;;5037795;28;1241;-66
2024/01/21 04:21:15;;;;;;;;;;;16.80;60.90;;;;;;5039406;28;1495;-66
2024/01/21 04:23:41;;;;;;;;;;;16.70;60.90;;;;;;5045376;28;1835;-65
2024/01/21 04:26:06;;;;;;;;;;;16.70;60.90;;;;;;5042988;28;1968;-66
2024/01/21 04:28:32;;;;;;;;;;;16.70;60.90;;;;;;5074612;28;1462;-66
2024/01/21 04:30:57;;;;;;;;;;;16.70;60.90;;;;;;5043529;28;1180;-66
2024/01/21 04:33:23;;;;;;;;;;;16.70;60.90;;;;;;5045300;28;1210;-64
2024/01/21 04:35:48;;;;;;;;;;;16.70;60.90;;;;;;5042343;28;1444;-67
2024/01/21 04:38:14;;;;;;;;;;;16.70;60.90;;;;;;5041494;28;1503;-67
2024/01/21 04:40:39;;;;;;;;;;;16.80;61.00;;;;;;5042064;28;1438;-66
2024/01/21 04:43:04;;;;;;;;;;;16.70;61.00;;;;;;5042996;28;1346;-68
2024/01/21 04:45:30;;;;;;;;;;;16.70;60.90;;;;;;5040001;28;1938;-67
2024/01/21 04:47:56;;;;;;;;;;;16.70;60.90;;;;;;5044203;28;1441;-66
2024/01/21 04:50:21;;;;;;;;;;;16.70;61.00;;;;;;5043409;28;1545;-66
2024/01/21 04:52:47;;;;;;;;;;;16.70;60.90;;;;;;5042348;28;951;-67
2024/01/21 04:55:12;;;;;;;;;;;16.70;60.90;;;;;;5040127;28;1573;-67
2024/01/21 04:57:38;;;;;;;;;;;16.70;61.00;;;;;;5043352;28;1427;-66
2024/01/21 05:00:05;;;;;;;;;;;16.70;60.90;;;;;;5074203;28;1501;-66
2024/01/21 05:02:31;;;;;;;;;;;16.70;61.00;;;;;;5043037;28;1402;-65
2024/01/21 05:04:57;;;;;;;;;;;16.70;61.00;;;;;;5039801;28;1910;-65
2024/01/21 05:07:22;;;;;;;;;;;16.70;60.90;;;;;;5070890;28;1374;-66
2024/01/21 05:09:48;;;;;;;;;;;16.70;61.00;;;;;;5038832;28;1341;-66
2024/01/21 05:12:13;;;;;;;;;;;16.70;61.70;;;;;;5057531;28;1360;-66
2024/01/21 05:14:38;;;;;;;;;;;16.80;60.90;;;;;;5042794;28;1528;-67
2024/01/21 05:17:04;;;;;;;;;;;16.80;60.90;;;;;;5040852;28;1364;-68
2024/01/21 05:19:29;;;;;;;;;;;16.80;60.80;;;;;;5041523;28;1462;-67
2024/01/21 05:21:55;;;;;;;;;;;16.80;60.60;;;;;;5069692;28;1348;-65
2024/01/21 05:24:20;;;;;;;;;;;16.90;60.60;;;;;;5038150;28;1969;-66
2024/01/21 05:26:46;;;;;;;;;;;16.90;60.40;;;;;;5041929;28;1626;-66
2024/01/21 05:29:12;;;;;;;;;;;16.90;60.30;;;;;;5041184;28;1324;-65
2024/01/21 05:31:37;;;;;;;;;;;17.00;60.10;;;;;;5040930;28;1658;-64
2024/01/21 05:34:03;;;;;;;;;;;17.00;60.00;;;;;;5055945;28;1357;-65
2024/01/21 05:36:28;;;;;;;;;;;17.10;60.00;;;;;;5071761;28;1244;-64
2024/01/21 05:38:54;;;;;;;;;;;17.10;59.80;;;;;;5039735;28;1344;-64
2024/01/21 05:41:19;;;;;;;;;;;17.10;59.80;;;;;;5040370;28;1573;-65
2024/01/21 05:43:45;;;;;;;;;;;17.10;59.70;;;;;;5042316;28;1327;-65
2024/01/21 05:46:10;;;;;;;;;;;17.20;59.70;;;;;;5072590;28;1906;-64
2024/01/21 05:48:36;;;;;;;;;;;17.20;59.60;;;;;;5049710;28;1224;-66
2024/01/21 05:51:01;;;;;;;;;;;17.20;59.60;;;;;;5052713;28;1324;-68
2024/01/21 05:53:27;;;;;;;;;;;17.20;59.50;;;;;;5050313;28;800;-64
2024/01/21 05:55:53;;;;;;;;;;;17.20;59.50;;;;;;5044565;28;1276;-64
2024/01/21 05:58:18;;;;;;;;;;;17.20;59.40;;;;;;5051732;28;964;-65
2024/01/21 06:00:43;;;;;;;;;;;17.30;59.40;;;;;;5046506;28;991;-68
2024/01/21 06:03:09;;;;;;;;;;;17.20;59.30;;;;;;5046210;28;897;-65
2024/01/21 06:05:34;;;;;;;;;;;17.30;59.30;;;;;;5054723;28;1903;-64
2024/01/21 06:08:00;;;;;;;;;;;17.30;59.30;;;;;;5033167;28;1196;-65
2024/01/21 06:10:25;;;;;;;;;;;17.30;59.20;;;;;;5044061;28;891;-64
2024/01/21 06:12:51;;;;;;;;;;;17.30;59.20;;;;;;5039027;28;1690;-64
2024/01/21 06:15:16;;;;;;;;;;;17.30;59.20;;;;;;5041762;28;1619;-65
2024/01/21 06:17:42;;;;;;;;;;;17.30;59.20;;;;;;5051058;28;1676;-67
2024/01/21 06:20:08;;;;;;;;;;;17.30;59.20;;;;;;5041916;28;880;-63
2024/01/21 06:22:35;;;;;;;;;;;17.30;59.10;;;;;;5046970;28;1427;-65
2024/01/21 06:25:01;;;;;;;;;;;17.30;59.10;;;;;;5038361;28;1902;-64
2024/01/21 06:27:26;;;;;;;;;;;17.30;59.10;;;;;;5049438;28;1141;-65
2024/01/21 06:29:52;;;;;;;;;;;17.40;59.10;;;;;;5041006;28;1570;-65
2024/01/21 06:32:17;;;;;;;;;;;17.40;59.10;;;;;;5040715;28;1504;-64
2024/01/21 06:34:43;;;;;;;;;;;17.40;59.10;;;;;;5038752;28;1529;-65
2024/01/21 06:37:08;;;;;;;;;;;17.40;59.10;;;;;;5040554;28;877;-67
2024/01/21 06:39:33;;;;;;;;;;;17.40;59.00;;;;;;5039295;28;1323;-63
2024/01/21 06:41:59;;;;;;;;;;;17.40;59.00;;;;;;5040334;28;1292;-64
2024/01/21 06:44:25;;;;;;;;;;;17.40;58.90;;;;;;5027570;28;1983;-65
2024/01/21 06:46:50;;;;;;;;;;;17.40;58.90;;;;;;5040237;28;1937;-66
2024/01/21 06:49:16;;;;;;;;;;;17.40;58.90;;;;;;5039306;28;1789;-64
2024/01/21 06:51:53;;;;;;;;;;;17.40;58.80;;;;;;5038354;28;1440;-67
2024/01/21 06:54:19;;;;;;;;;;;17.40;58.80;;;;;;5041267;28;1464;-68
2024/01/21 06:56:44;;;;;;;;;;;17.50;58.80;;;;;;5038281;28;1437;-64
2024/01/21 06:59:10;;;;;;;;;;;17.50;58.80;;;;;;5035020;28;1507;-65
2024/01/21 07:01:35;;;;;;;;;;;17.50;58.80;;;;;;5040280;28;1454;-67
2024/01/21 07:04:01;;;;;;;;;;;17.50;58.80;;;;;;5038040;28;1332;-65
2024/01/21 07:06:26;;;;;;;;;;;17.50;58.70;;;;;;5067986;28;1897;-64
2024/01/21 07:08:52;;;;;;;;;;;17.50;58.80;;;;;;5037295;28;1360;-65
2024/01/21 07:11:18;;;;;;;;;;;17.50;58.80;;;;;;5038790;28;1382;-66
2024/01/21 07:13:43;;;;;;;;;;;17.40;58.80;;;;;;5037764;28;1484;-66
2024/01/21 07:16:08;;;;;;;;;;;17.50;58.80;;;;;;5069751;28;1380;-66
2024/01/21 07:18:35;;;;;;;;;;;17.50;58.80;;;;;;5037448;28;1469;-67
2024/01/21 07:21:00;;;;;;;;;;;17.50;58.80;;;;;;5037857;28;1643;-66
2024/01/21 07:23:26;;;;;;;;;;;17.40;58.80;;;;;;5039934;28;1443;-64
2024/01/21 07:25:51;;;;;;;;;;;17.40;58.80;;;;;;5042654;28;1902;-66
2024/01/21 07:28:17;;;;;;;;;;;17.40;58.90;;;;;;5038719;28;1218;-66
2024/01/21 07:30:42;;;;;;;;;;;17.40;58.90;;;;;;5037660;28;1350;-66
2024/01/21 07:33:08;;;;;;;;;;;17.40;58.90;;;;;;5046090;28;1325;-65
2024/01/21 07:35:33;;;;;;;;;;;17.40;58.90;;;;;;5038986;28;1466;-68
2024/01/21 07:37:59;;;;;;;;;;;17.40;58.90;;;;;;5038946;28;1460;-67
2024/01/21 07:40:24;;;;;;;;;;;17.40;59.00;;;;;;5036764;28;1451;-66
2024/01/21 07:42:50;;;;;;;;;;;17.40;59.00;;;;;;5037873;28;1221;-67
2024/01/21 07:45:15;;;;;;;;;;;17.40;59.00;;;;;;5068945;28;1890;-67
2024/01/21 07:47:41;;;;;;;;;;;17.40;59.10;;;;;;5039310;28;1753;-68
2024/01/21 07:50:07;;;;;;;;;;;17.40;59.10;;;;;;5039175;28;1263;-66
2024/01/21 07:52:32;;;;;;;;;;;17.30;59.10;;;;;;5039971;28;1143;-67
2024/01/21 07:54:58;;;;;;;;;;;17.30;59.10;;;;;;5027626;28;1260;-64
2024/01/21 07:57:23;;;;;;;;;;;17.30;59.20;;;;;;5042431;28;1102;-65
2024/01/21 07:59:49;;;;;;;;;;;17.30;59.20;;;;;;5052078;28;1014;-66
2024/01/21 08:02:14;;;;;;;;;;;17.30;59.20;;;;;;5050881;28;969;-69
2024/01/21 08:04:40;;;;;;;;;;;17.30;59.20;;;;;;5044486;28;1906;-64
2024/01/21 08:07:05;;;;;;;;;;;17.30;59.20;;;;;;5043593;28;862;-65
2024/01/21 08:09:31;;;;;;;;;;;17.30;59.20;;;;;;5036641;28;1263;-69
2024/01/21 08:11:56;;;;;;;;;;;17.30;59.30;;;;;;5036670;28;987;-64
2024/01/21 08:14:22;;;;;;;;;;;17.30;59.30;;;;;;5037736;28;1021;-64
2024/01/21 08:16:47;;;;;;;;;;;17.30;59.30;;;;;;5038665;28;1501;-67
2024/01/21 08:19:15;;;;;;;;;;;17.30;59.30;;;;;;5037737;28;1375;-66
2024/01/21 08:21:40;;;;;;;;;;;17.30;59.30;;;;;;5038643;28;1178;-66
2024/01/21 08:24:05;;;;;;;;;;;17.30;59.20;;;;;;5037403;28;1254;-69
2024/01/21 08:26:31;;;;;;;;;;;17.30;59.20;;;;;;5040938;28;1898;-66
2024/01/21 08:28:58;;;;;;;;;;;17.30;59.20;;;;;;5044572;28;1240;-65
2024/01/21 08:31:23;;;;;;;;;;;17.30;59.20;;;;;;5042939;28;859;-65
2024/01/21 08:33:49;;;;;;;;;;;17.30;59.20;;;;;;5044682;28;1074;-65
2024/01/21 08:36:14;;;;;;;;;;;17.40;59.20;;;;;;5040007;28;1280;-66
2024/01/21 08:38:39;;;;;;;;;;;17.40;59.10;;;;;;5039694;28;1795;-67
2024/01/21 08:41:05;;;;;;;;;;;17.40;59.10;;;;;;5040909;28;1459;-65
2024/01/21 08:43:30;;;;;;;;;;;17.40;59.10;;;;;;5034722;28;1499;-66
2024/01/21 08:45:56;;;;;;;;;;;17.40;59.00;;;;;;5049172;28;1898;-66
2024/01/21 08:48:21;;;;;;;;;;;17.40;59.00;;;;;;5052516;28;796;-65
2024/01/21 08:50:47;;;;;;;;;;;17.40;59.00;;;;;;5051152;28;1238;-65
2024/01/21 08:53:12;;;;;;;;;;;17.40;59.00;;;;;;5041600;28;837;-66
2024/01/21 08:55:38;;;;;;;;;;;17.40;59.50;;;;;;5051245;28;1288;-65
2024/01/21 08:58:03;;;;;;;;;;;17.40;58.90;;;;;;5038548;28;1386;-65
2024/01/21 09:00:28;;;;;;;;;;;17.40;58.90;;;;;;5042633;28;867;-65
2024/01/21 09:02:54;;;;;;;;;;;17.40;58.90;;;;;;5038962;28;920;-68
2024/01/21 09:05:19;;;;;;;;;;;17.40;58.90;;;;;;5070645;28;1965;-65
2024/01/21 09:07:45;;;;;;;;;;;17.40;58.80;;;;;;5046507;28;1775;-65
2024/01/21 09:10:10;;;;;;;;;;;17.40;58.80;;;;;;5042426;28;874;-68
2024/01/21 09:12:36;;;;;;;;;;;17.50;58.80;;;;;;5043596;28;1177;-65
2024/01/21 09:15:02;;;;;;;;;;;17.50;58.80;;;;;;5032718;28;1354;-66
2024/01/21 09:17:28;;;;;;;;;;;17.50;58.80;;;;;;5041805;28;1272;-67
2024/01/21 09:19:53;;;;;;;;;;;17.50;58.80;;;;;;5038334;28;1322;-68
2024/01/21 09:22:18;;;;;;;;;;;17.50;58.80;;;;;;5040509;28;1123;-67
2024/01/21 09:24:44;;;;;;;;;;;17.50;58.80;;;;;;5041649;28;1891;-65
2024/01/21 09:27:09;;;;;;;;;;;17.50;58.80;;;;;;5072645;28;1302;-65
2024/01/21 09:29:35;;;;;;;;;;;17.50;58.70;;;;;;5041153;28;1244;-70
2024/01/21 09:32:00;;;;;;;;;;;17.50;58.70;;;;;;5052467;28;782;-66
2024/01/21 09:34:26;;;;;;;;;;;17.50;58.70;;;;;;5045308;28;872;-66
2024/01/21 09:36:51;;;;;;;;;;;17.50;58.80;;;;;;5044511;28;1173;-67
2024/01/21 09:39:17;;;;;;;;;;;17.50;58.70;;;;;;5031892;28;1211;-64
2024/01/21 09:41:50;;;;;;;;;;;17.50;58.70;;;;;;5043243;28;1115;-64
2024/01/21 09:44:19;;;;;;;;;;;17.50;58.70;;;;;;5038148;28;1957;-68
2024/01/21 09:46:57;;;;;;;;;;;17.50;58.70;;;;;;5059019;28;1215;-64
2024/01/21 09:49:24;;;;;;;;;;;17.50;58.70;;;;;;5055150;28;1065;-65
2024/01/21 09:51:49;;;;;;;;;;;17.50;58.70;;;;;;5055303;28;1009;-64
2024/01/21 09:54:15;;;;;;;;;;;17.50;58.70;;;;;;5042905;28;904;-64
2024/01/21 09:56:41;;;;;;;;;;;17.50;58.70;;;;;;5052706;28;1267;-64
2024/01/21 09:59:06;;;;;;;;;;;17.50;58.70;;;;;;5048838;28;959;-65
2024/01/21 10:01:32;;;;;;;;;;;17.50;58.60;;;;;;5050357;28;1255;-65
2024/01/21 10:03:57;;;;;;;;;;;17.50;58.60;;;;;;5049609;28;1268;-65
2024/01/21 10:06:23;;;;;;;;;;;17.50;58.60;;;;;;5039283;28;1894;-66
2024/01/21 10:08:49;;;;;;;;;;;17.50;58.60;;;;;;5043118;28;871;-68
2024/01/21 10:11:15;;;;;;;;;;;17.50;58.60;;;;;;5047776;28;1358;-67
2024/01/21 10:13:42;;;;;;;;;;;17.50;58.60;;;;;;5048703;28;1344;-69
2024/01/21 10:16:08;;;;;;;;;;;17.50;58.70;;;;;;5053457;28;1425;-65
2024/01/21 10:18:34;;;;;;;;;;;17.50;58.70;;;;;;5039393;28;904;-66
2024/01/21 10:21:02;;;;;;;;;;;17.50;58.70;;;;;;5042077;28;1400;-65
2024/01/21 10:23:27;;;;;;;;;;;17.50;58.70;;;;;;5031323;28;1409;-67
2024/01/21 10:25:53;;;;;;;;;;;17.50;58.70;;;;;;5035922;28;1962;-66
2024/01/21 10:28:22;;;;;;;;;;;17.50;58.70;;;;;;5071196;28;1192;-67
2024/01/21 10:30:48;;;;;;;;;;;17.50;58.70;;;;;;5066463;28;1915;-66
2024/01/21 10:33:13;;;;;;;;;;;17.50;58.70;;;;;;5038496;28;2166;-67
2024/01/21 10:35:39;;;;;;;;;;;17.50;58.80;;;;;;5040762;28;1661;-67
2024/01/21 10:38:09;;;;;;;;;;;17.50;58.80;;;;;;5034713;28;1394;-66
2024/01/21 10:40:35;;;;;;;;;;;17.50;58.80;;;;;;5034509;28;1910;-66
2024/01/21 10:43:00;;;;;;;;;;;17.40;58.80;;;;;;5037329;28;1315;-67
2024/01/21 10:45:26;;;;;;;;;;;17.50;58.80;;;;;;5070783;28;1890;-66
2024/01/21 10:47:52;;;;;;;;;;;17.40;58.80;;;;;;5037248;28;1276;-67
2024/01/21 10:50:17;;;;;;;;;;;17.40;58.80;;;;;;5055081;28;1265;-67
2024/01/21 10:52:43;;;;;;;;;;;17.40;58.80;;;;;;5038187;28;1845;-67
2024/01/21 10:55:08;;;;;;;;;;;17.40;58.80;;;;;;5038222;28;1549;-66
2024/01/21 10:57:34;;;;;;;;;;;17.40;58.80;;;;;;5046349;28;1408;-67
2024/01/21 10:59:59;;;;;;;;;;;17.40;58.90;;;;;;5037458;28;1246;-67
2024/01/21 11:02:25;;;;;;;;;;;17.40;58.90;;;;;;5036232;28;1443;-67
2024/01/21 11:04:50;;;;;;;;;;;17.40;58.90;;;;;;5039928;28;1976;-67
2024/01/21 11:07:16;;;;;;;;;;;17.40;58.90;;;;;;5036517;28;1686;-67
2024/01/21 11:09:42;;;;;;;;;;;17.40;58.90;;;;;;5037598;28;1436;-67
2024/01/21 11:12:07;;;;;;;;;;;17.40;58.90;;;;;;5038657;28;1256;-67
2024/01/21 11:14:37;;;;;;;;;;;17.40;58.90;;;;;;5042405;28;1419;-65
2024/01/21 11:17:03;;;;;;;;;;;17.40;58.90;;;;;;5050698;28;800;-66
2024/01/21 11:19:57;;;;;;;;;;;17.40;59.00;;;;;;5042299;28;1601;-66
2024/01/21 11:22:23;;;;;;;;;;;17.40;59.00;;;;;;5041456;28;1774;-72
2024/01/21 11:24:51;;;;;;;;;;;17.40;59.10;;;;;;5046331;28;1910;-66
2024/01/21 11:27:24;;;;;;;;;;;17.40;59.00;;;;;;5048600;28;919;-66
2024/01/21 11:29:50;;;;;;;;;;;17.40;59.00;;;;;;5033943;28;1163;-67
2024/01/21 11:32:19;;;;;;;;;;;17.40;59.00;;;;;;5035520;28;2194;-64
2024/01/21 11:34:45;;;;;;;;;;;17.40;59.00;;;;;;5041374;28;1652;-64
2024/01/21 11:37:13;;;;;;;;;;;17.40;59.00;;;;;;5039160;28;1479;-66
2024/01/21 11:39:39;;;;;;;;;;;17.40;59.00;;;;;;5046451;28;1319;-64
2024/01/21 11:42:05;;;;;;;;;;;17.40;59.00;;;;;;5071079;28;1164;-64
2024/01/21 11:44:31;;;;;;;;;;;17.40;58.90;;;;;;5039500;28;1894;-65
2024/01/21 11:46:57;;;;;;;;;;;17.40;58.90;;;;;;5035149;28;1499;-65
2024/01/21 11:49:25;;;;;;;;;;;17.40;58.90;;;;;;5045782;28;1443;-64
2024/01/21 11:51:51;;;;;;;;;;;17.40;58.90;;;;;;5067967;28;1237;-64
2024/01/21 11:54:16;;;;;;;;;;;17.40;58.90;;;;;;5038196;28;1457;-64
2024/01/21 11:56:42;;;;;;;;;;;17.40;58.90;;;;;;5036724;28;1620;-64
2024/01/21 11:59:08;;;;;;;;;;;17.40;58.90;;;;;;5070585;28;2131;-65
2024/01/21 12:01:34;;;;;;;;;;;17.40;58.90;;;;;;5040314;28;1302;-65
2024/01/21 12:04:03;;;;;;;;;;;17.40;58.90;;;;;;5037886;28;1339;-64
2024/01/21 12:06:29;;;;;;;;;;;17.40;58.90;;;;;;5045597;28;1973;-65
2024/01/21 12:08:54;;;;;;;;;;;17.40;58.90;;;;;;5037791;28;1285;-65
2024/01/21 12:11:20;;;;;;;;;;;17.40;59.00;;;;;;5044116;28;1485;-65
2024/01/21 12:13:45;;;;;;;;;;;17.40;59.00;;;;;;5038883;28;1356;-65
2024/01/21 12:16:11;;;;;;;;;;;17.30;59.00;;;;;;5038828;28;1365;-65
2024/01/21 12:18:40;;;;;;;;;;;17.40;59.00;;;;;;5055777;28;1444;-65
2024/01/21 12:21:05;;;;;;;;;;;17.30;59.00;;;;;;5038641;28;1520;-65
2024/01/21 12:23:31;;;;;;;;;;;17.40;59.10;;;;;;5034474;28;1481;-65
2024/01/21 12:25:56;;;;;;;;;;;17.30;59.00;;;;;;5069625;28;1965;-65
2024/01/21 12:28:22;;;;;;;;;;;17.30;59.10;;;;;;5071216;28;1227;-64
2024/01/21 12:30:47;;;;;;;;;;;17.30;59.10;;;;;;5037873;28;1296;-64
2024/01/21 12:33:13;;;;;;;;;;;17.30;59.10;;;;;;5037912;28;927;-64
2024/01/21 12:35:38;;;;;;;;;;;17.30;59.10;;;;;;5037902;28;1268;-65
2024/01/21 12:38:04;;;;;;;;;;;17.30;59.10;;;;;;5034931;28;1604;-65
2024/01/21 12:40:29;;;;;;;;;;;17.30;59.10;;;;;;5068728;28;1522;-64
2024/01/21 12:42:55;;;;;;;;;;;17.30;59.00;;;;;;5041679;28;1532;-64
2024/01/21 12:45:20;;;;;;;;;;;17.40;59.00;;;;;;5040860;28;1902;-63
2024/01/21 12:47:46;;;;;;;;;;;17.40;59.00;;;;;;5043879;28;1888;-64
2024/01/21 12:50:11;;;;;;;;;;;17.40;58.90;;;;;;5042014;28;1275;-64
2024/01/21 12:52:37;;;;;;;;;;;17.40;59.00;;;;;;5043418;28;1560;-64
2024/01/21 12:55:03;;;;;;;;;;;17.40;58.90;;;;;;5045167;28;1454;-65
2024/01/21 12:57:28;;;;;;;;;;;17.40;58.90;;;;;;5040619;28;1536;-64
2024/01/21 12:59:54;;;;;;;;;;;17.40;58.90;;;;;;5038641;28;1481;-64
2024/01/21 13:02:19;;;;;;;;;;;17.40;58.90;;;;;;5041411;28;1459;-64
2024/01/21 13:04:45;;;;;;;;;;;17.40;58.90;;;;;;5043826;28;1879;-65
2024/01/21 13:07:10;;;;;;;;;;;17.40;58.90;;;;;;5042062;28;1260;-64
2024/01/21 13:09:36;;;;;;;;;;;17.40;58.90;;;;;;5073228;28;1578;-64
2024/01/21 13:12:01;;;;;;;;;;;17.40;58.90;;;;;;5044351;28;1498;-64
2024/01/21 13:14:26;;;;;;;;;;;17.40;58.80;;;;;;5042962;28;1415;-64
2024/01/21 13:16:52;;;;;;;;;;;17.40;58.80;;;;;;5040501;28;1374;-65
2024/01/21 13:19:17;;;;;;;;;;;17.40;58.80;;;;;;5045006;28;1453;-64
2024/01/21 13:21:43;;;;;;;;;;;17.40;58.80;;;;;;5041326;28;1707;-65
2024/01/21 13:24:09;;;;;;;;;;;17.40;58.80;;;;;;5045538;28;1505;-65
2024/01/21 13:26:40;;;;;;;;;;;17.50;58.90;;;;;;5044703;28;1894;-65
2024/01/21 13:31:38;;;;;;;;;;;17.60;59.30;;;;;;5071904;28;1906;-64
2024/01/21 13:34:04;;;;;;;;;;;17.70;59.20;;;;;;5041073;28;1226;-64
2024/01/21 13:36:32;;;;;;;;;;;17.80;58.70;;;;;;5042871;28;1600;-64
2024/01/21 13:38:57;;;;;;;;;;;17.80;58.40;;;;;;5060925;28;1605;-64
2024/01/21 13:41:22;;;;;;;;;;;17.80;58.30;;;;;;5044058;28;1579;-64
2024/01/21 13:43:48;;;;;;;;;;;17.80;58.30;;;;;;5039204;28;1593;-65
2024/01/21 13:46:15;;;;;;;;;;;17.80;58.40;;;;;;5039977;28;1902;-65
2024/01/21 13:48:41;;;;;;;;;;;17.70;58.30;;;;;;5040189;28;1381;-65
2024/01/21 13:51:09;;;;;;;;;;;17.70;58.40;;;;;;5040696;28;1485;-64
2024/01/21 13:53:35;;;;;;;;;;;17.70;58.40;;;;;;5039227;28;1481;-65
2024/01/21 13:56:01;;;;;;;;;;;17.70;58.40;;;;;;5072689;28;1302;-65
2024/01/21 13:58:26;;;;;;;;;;;17.70;58.40;;;;;;5041559;28;1569;-64
2024/01/21 14:00:52;;;;;;;;;;;17.70;58.50;;;;;;5041783;28;1710;-65
2024/01/21 14:03:17;;;;;;;;;;;17.70;58.50;;;;;;5041245;28;1483;-64
2024/01/21 14:05:43;;;;;;;;;;;17.70;58.50;;;;;;5040742;28;1906;-65
2024/01/21 14:08:08;;;;;;;;;;;17.70;58.50;;;;;;5041197;28;1433;-65
2024/01/21 14:10:34;;;;;;;;;;;17.70;58.50;;;;;;5041421;28;1365;-65
2024/01/21 14:12:59;;;;;;;;;;;17.60;58.50;;;;;;5039943;28;1487;-65
2024/01/21 14:15:24;;;;;;;;;;;17.60;58.50;;;;;;5048496;28;1561;-65
2024/01/21 14:17:50;;;;;;;;;;;17.60;58.50;;;;;;5040257;28;1877;-65
2024/01/21 14:20:16;;;;;;;;;;;17.60;58.50;;;;;;5039336;28;1559;-65
2024/01/21 14:22:42;;;;;;;;;;;17.60;58.50;;;;;;5042591;28;1478;-65
2024/01/21 14:25:15;;;;;;;;;;;17.60;58.50;;;;;;5038672;28;1957;-65